Time;durP1;ratioP1;P1;durP2;ratioP2;P2;SDS_P1;SDS_P2;PMS_P1;PMS_P2;Temp;Humidity;BMP_temperature;BMP_pressure;BME280_temperature;BME280_humidity;BME280_pressure;Samples;Min_cycle;Max_cycle;Signal;HPM_P1;HPM_P2
2023/05/03 00:00:19;;;;;;;;;;;;;;;2.89;68.59;102121.48;107018;1263;62637;-84
2023/05/03 00:03:06;;;;;;;;;;;;;;;2.88;68.59;102116.52;107301;1257;124921;-85
2023/05/03 00:05:33;;;;;;;;;;;;;;;2.87;68.74;102115.40;107700;1257;66804;-85
2023/05/03 00:08:02;;;;;;;;;;;;;;;2.86;68.63;102117.95;107739;1258;124394;-84
2023/05/03 00:10:29;;;;;;;;;;;;;;;2.84;68.82;102117.77;107949;1257;61962;-84
2023/05/03 00:12:56;;;;;;;;;;;;;;;2.83;68.80;102116.48;107910;1258;60295;-84
2023/05/03 00:15:23;;;;;;;;;;;;;;;2.81;68.65;102115.11;107497;1258;258122;-83
2023/05/03 00:17:50;;;;;;;;;;;;;;;2.80;68.86;102116.79;108740;1257;65904;-84
2023/05/03 00:20:18;;;;;;;;;;;;;;;2.79;68.67;102114.79;108772;1257;124298;-84
2023/05/03 00:22:45;;;;;;;;;;;;;;;2.77;68.89;102108.58;108889;1257;60308;-84
2023/05/03 00:25:12;;;;;;;;;;;;;;;2.76;69.01;102110.77;107575;1257;60201;-83
2023/05/03 00:27:39;;;;;;;;;;;;;;;2.76;68.95;102113.72;107025;1257;124925;-83
2023/05/03 00:30:09;;;;;;;;;;;;;;;2.76;68.97;102115.25;107209;1263;67663;-83
2023/05/03 00:32:42;;;;;;;;;;;;;;;2.75;68.87;102112.56;107029;1257;124685;-83
2023/05/03 00:35:09;;;;;;;;;;;;;;;2.74;68.93;102110.25;107211;1257;60677;-83
2023/05/03 00:37:39;;;;;;;;;;;;;;;2.74;69.19;102113.76;107305;1257;62088;-83
2023/05/03 00:40:08;;;;;;;;;;;;;;;2.75;69.08;102113.45;107160;1263;74060;-83
2023/05/03 00:42:35;;;;;;;;;;;;;;;2.76;69.18;102116.11;107426;1258;67119;-84
2023/05/03 00:45:04;;;;;;;;;;;;;;;2.76;69.09;102114.91;107427;1257;124955;-83
2023/05/03 00:47:31;;;;;;;;;;;;;;;2.77;69.31;102114.29;107275;1263;60879;-84
2023/05/03 00:49:58;;;;;;;;;;;;;;;2.78;69.30;102113.30;107271;1257;125667;-84
2023/05/03 00:52:26;;;;;;;;;;;;;;;2.79;69.23;102119.31;107107;1257;75494;-83
2023/05/03 00:54:58;;;;;;;;;;;;;;;2.80;69.30;102121.29;107367;1257;67095;-83
2023/05/03 00:57:32;;;;;;;;;;;;;;;2.81;69.23;102121.73;107229;1259;125026;-84
2023/05/03 01:00:08;;;;;;;;;;;;;;;2.82;69.25;102123.36;107742;1257;60805;-83
2023/05/03 01:02:48;;;;;;;;;;;;;;;2.83;69.24;102124.14;107225;1257;124915;-86
2023/05/03 01:05:15;;;;;;;;;;;;;;;2.83;69.27;102122.97;107019;1261;73240;-85
2023/05/03 01:08:13;;;;;;;;;;;;;;;2.84;69.33;102125.63;106869;1257;125247;-85
2023/05/03 01:10:50;;;;;;;;;;;;;;;2.83;69.21;102122.07;107009;1261;71328;-85
2023/05/03 01:13:22;;;;;;;;;;;;;;;2.81;69.22;102123.33;107286;1257;61684;-84
2023/05/03 01:15:57;;;;;;;;;;;;;;;2.82;69.18;102122.83;107286;1257;125325;-85
2023/05/03 01:18:43;;;;;;;;;;;;;;;2.82;69.27;102122.98;107357;1260;73849;-84
2023/05/03 01:21:14;;;;;;;;;;;;;;;2.80;69.01;102125.65;107053;1259;124989;-85
2023/05/03 01:23:56;;;;;;;;;;;;;;;2.77;69.24;102125.25;107250;1258;72724;-84
2023/05/03 01:26:25;;;;;;;;;;;;;;;2.76;69.13;102122.85;107060;1256;125615;-83
2023/05/03 01:28:52;;;;;;;;;;;;;;;2.75;69.23;102125.22;107327;1257;62036;-83
2023/05/03 01:31:46;;;;;;;;;;;;;;;2.72;69.04;102119.46;107361;1256;74681;-83
2023/05/03 01:34:27;;;;;;;;;;;;;;;2.68;69.32;102121.76;108792;1256;67659;-83
2023/05/03 01:36:56;;;;;;;;;;;;;;;2.67;69.13;102124.41;107431;1256;72999;-83
2023/05/03 01:39:28;;;;;;;;;;;;;;;2.64;69.23;102126.50;107361;1257;124900;-83
2023/05/03 01:41:56;;;;;;;;;;;;;;;2.64;69.39;102124.23;107535;1257;61951;-83
2023/05/03 01:44:23;;;;;;;;;;;;;;;2.62;69.45;102123.02;107327;1257;125565;-82
2023/05/03 01:47:09;;;;;;;;;;;;;;;2.61;69.46;102123.81;107345;1257;67451;-83
2023/05/03 01:49:38;;;;;;;;;;;;;;;2.60;69.37;102119.35;107617;1257;70728;-83
2023/05/03 01:52:07;;;;;;;;;;;;;;;2.57;69.51;102121.02;107634;1258;124737;-83
2023/05/03 01:54:35;;;;;;;;;;;;;;;2.55;69.54;102118.08;107904;1257;60825;-83
2023/05/03 01:57:02;;;;;;;;;;;;;;;2.52;69.42;102117.36;107716;1257;124803;-84
2023/05/03 01:59:29;;;;;;;;;;;;;;;2.50;69.46;102121.05;107374;1256;65866;-83
2023/05/03 02:01:56;;;;;;;;;;;;;;;2.47;69.44;102119.94;107519;1256;124994;-83
2023/05/03 02:04:23;;;;;;;;;;;;;;;2.44;69.50;102124.25;107328;1256;61933;-84
2023/05/03 02:06:50;;;;;;;;;;;;;;;2.43;69.59;102125.51;107370;1257;62060;-83
2023/05/03 02:09:17;;;;;;;;;;;;;;;2.40;69.56;102120.77;107330;1257;125469;-83
2023/05/03 02:11:44;;;;;;;;;;;;;;;2.36;69.70;102117.52;107301;1256;65459;-84
2023/05/03 02:14:11;;;;;;;;;;;;;;;2.34;69.45;102120.09;107304;1257;125086;-84
2023/05/03 02:16:39;;;;;;;;;;;;;;;2.30;69.70;102121.16;107428;1257;62160;-84
2023/05/03 02:19:07;;;;;;;;;;;;;;;2.27;69.55;102117.82;107363;1256;62194;-83
2023/05/03 02:21:34;;;;;;;;;;;;;;;2.22;69.43;102118.98;107586;1256;125566;-83
2023/05/03 02:24:02;;;;;;;;;;;;;;;2.19;69.53;102121.47;107484;1257;66856;-84
2023/05/03 02:26:31;;;;;;;;;;;;;;;2.15;69.55;102122.04;107246;1257;125291;-85
2023/05/03 02:28:58;;;;;;;;;;;;;;;2.11;69.63;102116.70;107332;1256;61655;-83
2023/05/03 02:31:31;;;;;;;;;;;;;;;2.09;69.76;102115.69;107295;1256;61915;-83
2023/05/03 02:33:59;;;;;;;;;;;;;;;2.08;69.80;102114.71;107331;1256;124760;-83
2023/05/03 02:36:39;;;;;;;;;;;;;;;2.06;69.94;102113.39;107255;1256;65925;-84
2023/05/03 02:39:06;;;;;;;;;;;;;;;2.07;69.97;102111.85;107191;1257;125009;-83
2023/05/03 02:41:33;;;;;;;;;;;;;;;2.07;70.15;102117.59;107427;1257;61810;-83
2023/05/03 02:44:02;;;;;;;;;;;;;;;2.07;70.17;102115.34;107294;1256;125138;-83
2023/05/03 02:46:29;;;;;;;;;;;;;;;2.07;70.28;102118.13;107566;1257;75482;-84
2023/05/03 02:48:58;;;;;;;;;;;;;;;2.07;70.16;102122.97;107671;1256;65482;-83
2023/05/03 02:51:25;;;;;;;;;;;;;;;2.07;70.07;102128.69;107365;1256;124946;-83
2023/05/03 02:53:58;;;;;;;;;;;;;;;2.07;70.14;102130.04;107346;1256;62077;-84
2023/05/03 02:56:32;;;;;;;;;;;;;;;2.04;69.93;102127.25;107177;1256;124733;-84
2023/05/03 02:59:06;;;;;;;;;;;;;;;2.01;70.00;102127.69;107339;1256;75519;-84
2023/05/03 03:01:34;;;;;;;;;;;;;;;2.01;70.00;102132.80;107558;1256;65746;-84
2023/05/03 03:04:01;;;;;;;;;;;;;;;1.99;70.12;102136.30;107407;1256;124466;-86
2023/05/03 03:06:28;;;;;;;;;;;;;;;1.97;70.06;102139.24;107081;1257;60879;-83
2023/05/03 03:09:01;;;;;;;;;;;;;;;1.98;70.10;102141.57;107134;1262;124311;-83
2023/05/03 03:11:28;;;;;;;;;;;;;;;1.98;70.21;102143.34;107417;1257;75501;-83
2023/05/03 03:13:55;;;;;;;;;;;;;;;1.99;70.30;102142.37;107211;1256;124783;-83
2023/05/03 03:16:28;;;;;;;;;;;;;;;2.00;70.22;102140.38;107448;1258;72700;-84
2023/05/03 03:18:57;;;;;;;;;;;;;;;2.00;70.29;102143.17;107773;1256;62127;-83
2023/05/03 03:21:27;;;;;;;;;;;;;;;2.01;70.20;102145.09;107648;1257;123991;-84
2023/05/03 03:23:55;;;;;;;;;;;;;;;2.02;70.38;102145.42;107531;1256;74257;-83
2023/05/03 03:26:22;;;;;;;;;;;;;;;2.03;70.35;102144.10;107395;1262;124269;-83
2023/05/03 03:28:50;;;;;;;;;;;;;;;2.03;70.48;102146.67;107466;1256;71475;-84
2023/05/03 03:31:17;;;;;;;;;;;;;;;2.03;70.41;102145.66;107573;1256;62121;-85
2023/05/03 03:33:44;;;;;;;;;;;;;;;2.10;70.63;102146.59;107263;1257;124046;-84
2023/05/03 03:36:11;;;;;;;;;;;;;;;2.42;71.41;102146.20;107402;1256;75525;-84
2023/05/03 03:38:39;;;;;;;;;;;;;;;3.32;72.70;102144.23;107178;1259;124924;-83
2023/05/03 03:41:08;;;;;;;;;;;;;;;4.71;73.31;102140.86;107142;1256;72833;-83
2023/05/03 03:43:36;;;;;;;;;;;;;;;6.13;72.57;102138.12;107204;1257;62085;-83
2023/05/03 03:46:04;;;;;;;;;;;;;;;7.44;71.46;102131.14;107075;1258;124052;-83
2023/05/03 03:48:31;;;;;;;;;;;;;;;8.69;70.40;102132.36;107476;1256;73186;-83
2023/05/03 03:50:58;;;;;;;;;;;;;;;9.97;69.29;102139.01;107399;1256;124694;-83
2023/05/03 03:53:25;;;;;;;;;;;;;;;11.14;67.84;102134.36;107413;1256;73198;-83
2023/05/03 03:55:54;;;;;;;;;;;;;;;12.23;66.42;102133.77;107246;1256;124639;-83
2023/05/03 03:58:21;;;;;;;;;;;;;;;13.33;64.70;102131.96;107003;1256;62117;-83
2023/05/03 04:00:48;;;;;;;;;;;;;;;14.21;62.89;102126.14;107434;1256;75577;-84
2023/05/03 04:03:15;;;;;;;;;;;;;;;15.03;61.39;102128.10;106873;1256;124936;-84
2023/05/03 04:05:42;;;;;;;;;;;;;;;15.81;59.72;102125.98;107073;1257;70652;-84
2023/05/03 04:08:21;;;;;;;;;;;;;;;16.61;58.52;102128.63;107279;1257;124838;-85
2023/05/03 04:10:49;;;;;;;;;;;;;;;17.48;56.94;102127.40;107403;1256;62049;-83
2023/05/03 04:13:29;;;;;;;;;;;;;;;18.23;55.47;102125.67;107201;1256;73894;-86
2023/05/03 04:15:57;;;;;;;;;;;;;;;18.97;53.94;102125.30;106785;1263;124607;-84
2023/05/03 04:18:26;;;;;;;;;;;;;;;19.61;52.73;102126.55;107100;1257;72457;-84
2023/05/03 04:20:53;;;;;;;;;;;;;;;20.25;51.05;102129.24;107099;1262;124884;-83
2023/05/03 04:23:20;;;;;;;;;;;;;;;20.81;50.17;102133.67;107252;1256;62216;-83
2023/05/03 04:25:47;;;;;;;;;;;;;;;21.49;49.00;102133.40;107359;1256;74064;-83
2023/05/03 04:28:15;;;;;;;;;;;;;;;22.17;47.85;102136.31;107405;1257;67387;-83
2023/05/03 04:30:46;;;;;;;;;;;;;;;22.77;46.65;102136.20;107484;1256;73305;-83
2023/05/03 04:33:13;;;;;;;;;;;;;;;23.43;45.78;102140.55;107669;1256;125028;-83
2023/05/03 04:35:40;;;;;;;;;;;;;;;24.14;45.00;102140.21;107804;1256;60123;-83
2023/05/03 04:38:08;;;;;;;;;;;;;;;24.80;43.41;102139.17;107687;1257;125086;-82
2023/05/03 04:40:36;;;;;;;;;;;;;;;25.13;42.18;102139.67;108810;1256;67385;-82
2023/05/03 04:43:04;;;;;;;;;;;;;;;25.49;41.62;102142.41;108768;1256;71920;-83
2023/05/03 04:45:31;;;;;;;;;;;;;;;25.97;40.62;102140.58;107310;1256;124724;-83
2023/05/03 04:48:04;;;;;;;;;;;;;;;26.37;39.75;102144.18;107499;1260;60271;-84
2023/05/03 04:50:31;;;;;;;;;;;;;;;26.80;38.88;102146.96;107515;1256;124667;-87
2023/05/03 04:52:58;;;;;;;;;;;;;;;27.08;38.00;102151.42;107618;1256;65868;-84
2023/05/03 04:55:25;;;;;;;;;;;;;;;27.32;37.35;102157.23;107328;1256;63752;-85
2023/05/03 04:57:55;;;;;;;;;;;;;;;27.71;36.91;102157.39;107031;1256;124415;-85
2023/05/03 05:00:22;;;;;;;;;;;;;;;27.96;35.92;102162.23;107125;1256;61245;-86
2023/05/03 05:02:50;;;;;;;;;;;;;;;28.14;35.31;102165.55;106933;1256;124658;-87
2023/05/03 05:05:21;;;;;;;;;;;;;;;28.49;34.64;102165.19;107035;1256;61992;-86
2023/05/03 05:08:02;;;;;;;;;;;;;;;28.52;33.70;102165.09;106845;1256;124878;-88
2023/05/03 05:10:42;;;;;;;;;;;;;;;28.64;33.38;102168.20;107336;1256;62019;-87
2023/05/03 05:13:25;;;;;;;;;;;;;;;28.89;33.09;102167.13;107090;1256;62117;-86
2023/05/03 05:16:06;;;;;;;;;;;;;;;29.01;32.50;102168.59;106997;1257;124521;-88
2023/05/03 05:21:33;;;;;;;;;;;;;;;29.13;31.45;102167.52;106818;1258;124657;-87
2023/05/03 05:24:00;;;;;;;;;;;;;;;29.09;30.82;102164.73;106921;1262;62138;-89
2023/05/03 05:26:29;;;;;;;;;;;;;;;28.85;30.50;102169.23;106685;1261;124633;-87
2023/05/03 05:29:02;;;;;;;;;;;;;;;27.92;30.03;102166.98;107067;1257;66601;-87
2023/05/03 05:31:30;;;;;;;;;;;;;;;26.16;29.63;102167.91;107016;1258;67079;-87
2023/05/03 05:33:57;;;;;;;;;;;;;;;24.01;29.61;102176.12;106970;1257;124707;-87
2023/05/03 05:36:24;;;;;;;;;;;;;;;22.03;30.71;102185.96;107136;1257;62979;-85
2023/05/03 05:38:52;;;;;;;;;;;;;;;20.48;31.60;102183.39;107217;1257;124961;-88
2023/05/03 05:41:20;;;;;;;;;;;;;;;19.01;32.57;102188.13;107661;1257;74111;-90
2023/05/03 05:44:03;;;;;;;;;;;;;;;17.64;33.64;102196.21;107302;1259;124598;-90
2023/05/03 05:46:31;;;;;;;;;;;;;;;16.47;34.57;102194.39;107286;1259;72426;-86
2023/05/03 05:49:04;;;;;;;;;;;;;;;15.60;35.79;102202.05;107219;1258;61886;-86
2023/05/03 05:51:31;;;;;;;;;;;;;;;14.88;36.61;102205.98;106842;1259;124813;-85
2023/05/03 05:54:06;;;;;;;;;;;;;;;14.10;37.26;102210.14;106940;1259;75680;-86
2023/05/03 05:56:41;;;;;;;;;;;;;;;13.52;38.17;102216.94;106836;1265;124923;-86
2023/05/03 05:59:16;;;;;;;;;;;;;;;13.14;39.21;102216.05;106853;1265;71277;-85
2023/05/03 06:01:45;;;;;;;;;;;;;;;12.83;39.92;102220.30;107040;1258;60175;-85
2023/05/03 06:04:30;;;;;;;;;;;;;;;12.47;40.28;102221.20;106913;1259;124433;-87
2023/05/03 06:06:57;;;;;;;;;;;;;;;12.11;40.99;102227.42;107467;1259;76061;-87
2023/05/03 06:09:29;;;;;;;;;;;;;;;11.83;41.49;102223.56;107240;1259;124623;-87
2023/05/03 06:12:05;;;;;;;;;;;;;;;11.66;41.94;102224.77;107286;1259;72729;-92
2023/05/03 06:14:35;;;;;;;;;;;;;;;11.48;42.26;102233.81;107191;1259;124716;-90
2023/05/03 06:17:14;;;;;;;;;;;;;;;11.30;42.61;102232.45;107218;1258;62714;-87
2023/05/03 06:19:51;;;;;;;;;;;;;;;11.10;42.84;102233.48;107575;1259;75737;-89
2023/05/03 06:22:20;;;;;;;;;;;;;;;10.96;43.26;102231.96;106968;1259;67119;-87
2023/05/03 06:25:08;;;;;;;;;;;;;;;10.92;43.52;102230.52;107289;1259;71111;-86
2023/05/03 06:27:49;;;;;;;;;;;;;;;10.86;43.79;102228.84;107522;1258;125073;-85
2023/05/03 06:30:18;;;;;;;;;;;;;;;10.80;43.98;102234.02;107464;1258;61083;-84
2023/05/03 06:32:47;;;;;;;;;;;;;;;10.73;44.05;102233.65;107140;1257;124517;-84
2023/05/03 06:35:14;;;;;;;;;;;;;;;10.69;44.33;102234.36;107298;1259;67092;-86
2023/05/03 06:37:42;;;;;;;;;;;;;;;10.63;44.34;102239.15;107587;1258;70575;-85
2023/05/03 06:40:16;;;;;;;;;;;;;;;10.58;44.41;102242.42;107324;1259;124412;-88
2023/05/03 06:43:06;;;;;;;;;;;;;;;10.58;44.39;102244.33;106847;1265;62063;-87
2023/05/03 06:45:42;;;;;;;;;;;;;;;10.58;44.43;102245.23;107211;1257;75492;-86
2023/05/03 06:48:24;;;;;;;;;;;;;;;10.57;44.29;102246.77;107279;1259;65672;-88
2023/05/03 06:50:53;;;;;;;;;;;;;;;10.59;44.02;102241.95;107005;1259;71382;-85
2023/05/03 06:53:22;;;;;;;;;;;;;;;10.59;43.82;102243.53;107021;1257;62166;-89
2023/05/03 06:55:56;;;;;;;;;;;;;;;10.57;43.74;102248.54;107157;1259;62887;-86
2023/05/03 07:01:51;;;;;;;;;;;;;;;10.49;43.23;102250.61;107281;1257;66107;-88
2023/05/03 07:04:32;;;;;;;;;;;;;;;10.50;43.18;102254.52;107150;1258;124313;-84
2023/05/03 07:06:59;;;;;;;;;;;;;;;10.49;42.23;102257.98;107391;1259;61282;-86
2023/05/03 07:09:31;;;;;;;;;;;;;;;10.47;42.35;102250.11;107397;1257;124795;-85
2023/05/03 07:12:06;;;;;;;;;;;;;;;10.55;42.25;102259.45;107130;1259;75545;-85
2023/05/03 07:14:33;;;;;;;;;;;;;;;10.62;41.96;102262.12;106868;1258;124835;-85
2023/05/03 07:17:12;;;;;;;;;;;;;;;10.67;41.63;102262.34;106941;1264;72846;-85
2023/05/03 07:19:49;;;;;;;;;;;;;;;10.67;41.45;102267.27;107124;1262;62144;-88
2023/05/03 07:22:24;;;;;;;;;;;;;;;10.67;41.43;102274.80;106997;1259;125059;-85
2023/05/03 07:24:53;;;;;;;;;;;;;;;10.65;41.12;102279.82;107060;1263;76622;-86
2023/05/03 07:27:20;;;;;;;;;;;;;;;10.61;41.07;102273.98;107111;1259;124699;-84
2023/05/03 07:29:47;;;;;;;;;;;;;;;10.58;41.18;102272.10;106941;1259;75454;-83
2023/05/03 07:32:14;;;;;;;;;;;;;;;10.59;41.32;102275.98;106990;1262;125181;-84
2023/05/03 07:34:41;;;;;;;;;;;;;;;10.64;41.53;102275.18;107454;1258;62014;-84
2023/05/03 07:37:08;;;;;;;;;;;;;;;10.71;41.37;102277.80;107170;1259;74187;-85
2023/05/03 07:39:36;;;;;;;;;;;;;;;10.76;40.97;102276.48;106955;1259;124515;-85
2023/05/03 07:42:04;;;;;;;;;;;;;;;10.80;40.46;102284.36;107097;1258;72221;-84
2023/05/03 07:44:31;;;;;;;;;;;;;;;10.83;40.32;102284.19;106796;1261;125090;-84
2023/05/03 07:46:58;;;;;;;;;;;;;;;10.88;39.96;102287.41;106837;1259;61361;-84
2023/05/03 07:49:26;;;;;;;;;;;;;;;10.92;39.59;102280.39;107147;1259;75238;-84
2023/05/03 07:51:53;;;;;;;;;;;;;;;10.96;39.60;102282.36;107021;1259;124359;-87
2023/05/03 07:54:30;;;;;;;;;;;;;;;11.02;39.89;102284.42;107002;1259;71446;-87
2023/05/03 07:56:59;;;;;;;;;;;;;;;11.08;39.28;102286.97;107106;1258;124620;-86
2023/05/03 07:59:26;;;;;;;;;;;;;;;11.09;38.82;102286.48;107162;1259;62064;-85
2023/05/03 08:02:12;;;;;;;;;;;;;;;11.10;38.88;102283.55;107118;1259;74151;-84
2023/05/03 08:05:14;;;;;;;;;;;;;;;11.13;38.61;102284.53;107197;1257;67704;-91
2023/05/03 08:07:43;;;;;;;;;;;;;;;11.13;38.80;102282.45;107116;1259;71454;-87
2023/05/03 08:10:22;;;;;;;;;;;;;;;11.17;38.83;102278.08;106811;1259;124553;-87
2023/05/03 08:12:50;;;;;;;;;;;;;;;11.26;38.36;102280.45;107156;1259;60122;-85
2023/05/03 08:15:19;;;;;;;;;;;;;;;11.32;38.07;102282.62;107080;1259;124945;-83
2023/05/03 08:18:05;;;;;;;;;;;;;;;11.35;37.68;102281.91;107116;1257;66332;-84
2023/05/03 08:20:35;;;;;;;;;;;;;;;11.40;37.98;102282.31;107114;1259;124891;-85
2023/05/03 08:23:05;;;;;;;;;;;;;;;11.50;37.99;102282.56;107279;1258;62076;-85
2023/05/03 08:25:35;;;;;;;;;;;;;;;11.56;37.42;102283.92;107151;1258;62028;-86
2023/05/03 08:28:13;;;;;;;;;;;;;;;11.59;37.44;102287.77;107025;1258;125481;-85
2023/05/03 08:30:42;;;;;;;;;;;;;;;11.60;37.15;102297.30;107245;1259;67552;-85
2023/05/03 08:33:09;;;;;;;;;;;;;;;11.55;37.02;102290.93;107097;1257;124601;-85
2023/05/03 08:35:37;;;;;;;;;;;;;;;11.54;37.22;102287.17;107468;1258;60650;-84
2023/05/03 08:38:10;;;;;;;;;;;;;;;11.60;37.19;102294.11;107307;1257;62229;-86
2023/05/03 08:40:39;;;;;;;;;;;;;;;11.61;37.35;102300.67;107261;1257;73898;-88
2023/05/03 08:43:13;;;;;;;;;;;;;;;11.61;37.61;102300.13;107282;1259;67512;-86
2023/05/03 08:45:41;;;;;;;;;;;;;;;11.64;37.41;102302.74;107384;1259;124989;-87
2023/05/03 08:48:08;;;;;;;;;;;;;;;11.66;37.31;102296.48;107906;1259;60932;-86
2023/05/03 08:50:40;;;;;;;;;;;;;;;11.67;37.58;102301.12;107572;1259;124780;-87
2023/05/03 08:53:08;;;;;;;;;;;;;;;11.73;37.72;102302.42;108511;1259;75199;-87
2023/05/03 08:55:35;;;;;;;;;;;;;;;11.79;37.71;102298.30;107512;1257;67150;-86
2023/05/03 08:58:09;;;;;;;;;;;;;;;11.87;37.76;102307.30;107042;1259;124840;-89
2023/05/03 09:00:40;;;;;;;;;;;;;;;11.91;37.91;102306.79;107480;1259;60484;-88
2023/05/03 09:03:07;;;;;;;;;;;;;;;11.95;37.85;102313.30;107483;1257;124613;-84
2023/05/03 09:05:42;;;;;;;;;;;;;;;11.99;37.57;102312.97;107358;1259;75488;-86
2023/05/03 09:08:11;;;;;;;;;;;;;;;12.02;37.89;102313.13;107521;1257;67335;-83
2023/05/03 09:10:42;;;;;;;;;;;;;;;12.09;38.25;102309.85;107109;1259;72736;-83
2023/05/03 09:13:10;;;;;;;;;;;;;;;12.18;38.18;102311.67;106878;1261;62057;-83
2023/05/03 09:15:45;;;;;;;;;;;;;;;12.24;38.32;102310.01;107380;1257;125612;-86
2023/05/03 09:18:16;;;;;;;;;;;;;;;12.30;38.15;102313.95;107300;1260;75454;-83
2023/05/03 09:20:50;;;;;;;;;;;;;;;12.35;38.22;102314.34;106986;1259;125106;-83
2023/05/03 09:23:20;;;;;;;;;;;;;;;12.43;38.33;102310.27;107149;1258;71892;-83
2023/05/03 09:25:52;;;;;;;;;;;;;;;12.52;38.31;102312.79;107168;1258;62231;-83
2023/05/03 09:28:19;;;;;;;;;;;;;;;12.64;38.42;102313.42;107025;1259;124967;-84
2023/05/03 09:30:49;;;;;;;;;;;;;;;12.74;37.84;102309.64;107148;1259;75534;-82
2023/05/03 09:33:21;;;;;;;;;;;;;;;12.86;37.70;102310.27;107130;1259;124536;-83
2023/05/03 09:35:55;;;;;;;;;;;;;;;12.95;37.56;102306.94;107030;1259;72704;-85
2023/05/03 09:42:10;;;;;;;;;;;;;;;13.07;37.16;102314.11;107061;1259;61297;-86
2023/05/03 09:44:47;;;;;;;;;;;;;;;13.12;36.80;102319.45;106802;1259;124617;-86
2023/05/03 09:47:15;;;;;;;;;;;;;;;13.05;36.34;102314.05;106834;1259;64777;-87
2023/05/03 09:49:50;;;;;;;;;;;;;;;13.05;36.16;102318.25;106922;1259;73096;-86
2023/05/03 09:52:17;;;;;;;;;;;;;;;13.06;36.19;102312.14;107183;1259;123383;-85
2023/05/03 09:54:47;;;;;;;;;;;;;;;13.16;36.44;102313.40;107401;1259;60015;-86
2023/05/03 09:57:14;;;;;;;;;;;;;;;13.32;36.30;102314.09;107119;1262;124705;-85
2023/05/03 09:59:55;;;;;;;;;;;;;;;13.40;35.94;102319.88;107203;1258;67081;-86
2023/05/03 10:02:31;;;;;;;;;;;;;;;13.29;35.56;102326.45;106699;1259;124588;-88
2023/05/03 10:05:06;;;;;;;;;;;;;;;13.10;35.46;102318.47;107059;1257;60278;-85
2023/05/03 10:07:39;;;;;;;;;;;;;;;13.03;35.50;102321.90;107249;1258;61055;-88
2023/05/03 10:10:06;;;;;;;;;;;;;;;12.97;35.20;102321.14;106923;1257;124872;-86
2023/05/03 10:12:44;;;;;;;;;;;;;;;12.94;35.27;102322.58;107241;1259;66405;-86
2023/05/03 10:15:19;;;;;;;;;;;;;;;12.93;35.34;102322.90;107125;1262;124883;-85
2023/05/03 10:17:49;;;;;;;;;;;;;;;12.99;35.19;102321.02;107180;1259;62130;-84
2023/05/03 10:20:32;;;;;;;;;;;;;;;13.16;35.36;102319.77;107005;1264;124726;-84
2023/05/03 10:23:06;;;;;;;;;;;;;;;13.39;35.33;102330.73;106873;1259;75257;-84
2023/05/03 10:25:35;;;;;;;;;;;;;;;13.50;35.06;102326.41;107121;1259;67061;-84
2023/05/03 10:28:09;;;;;;;;;;;;;;;13.60;34.96;102322.55;107149;1259;124543;-83
2023/05/03 10:30:38;;;;;;;;;;;;;;;13.59;34.67;102328.69;107044;1259;62240;-84
2023/05/03 10:33:27;;;;;;;;;;;;;;;13.45;34.55;102326.40;106661;1259;125179;-83
2023/05/03 10:36:03;;;;;;;;;;;;;;;13.34;34.41;102322.08;107072;1259;74160;-84
2023/05/03 10:38:36;;;;;;;;;;;;;;;13.36;34.56;102321.31;107077;1259;124965;-84
2023/05/03 10:41:05;;;;;;;;;;;;;;;13.50;34.60;102327.46;107105;1259;72623;-83
2023/05/03 10:43:32;;;;;;;;;;;;;;;13.59;34.39;102330.28;107218;1259;61184;-84
2023/05/03 10:46:00;;;;;;;;;;;;;;;13.66;34.61;102330.17;107198;1259;124931;-84
2023/05/03 10:48:27;;;;;;;;;;;;;;;13.73;35.22;102332.73;106990;1260;75584;-84
2023/05/03 10:50:55;;;;;;;;;;;;;;;13.72;35.63;102328.64;106861;1259;126078;-84
2023/05/03 10:53:32;;;;;;;;;;;;;;;13.71;35.72;102328.43;107201;1259;72728;-85
2023/05/03 10:56:04;;;;;;;;;;;;;;;13.68;35.96;102323.20;107328;1259;62069;-83
2023/05/03 10:58:37;;;;;;;;;;;;;;;13.77;36.41;102324.23;107387;1260;124547;-84
2023/05/03 11:01:06;;;;;;;;;;;;;;;13.77;36.62;102334.11;107991;1258;76059;-83
2023/05/03 11:03:43;;;;;;;;;;;;;;;13.65;36.86;102328.20;107003;1259;124500;-83
2023/05/03 11:06:28;;;;;;;;;;;;;;;13.63;36.96;102326.02;106902;1259;72279;-83
2023/05/03 11:08:58;;;;;;;;;;;;;;;13.71;36.77;102323.47;107440;1259;124596;-83
2023/05/03 11:11:25;;;;;;;;;;;;;;;13.71;36.81;102325.96;107262;1259;60989;-86
2023/05/03 11:13:52;;;;;;;;;;;;;;;13.73;36.72;102329.90;107354;1259;76088;-85
2023/05/03 11:16:19;;;;;;;;;;;;;;;13.63;36.61;102337.48;107130;1259;125071;-83
2023/05/03 11:18:47;;;;;;;;;;;;;;;13.49;36.83;102334.10;107163;1259;72794;-84
2023/05/03 11:21:15;;;;;;;;;;;;;;;13.49;37.32;102338.55;107468;1259;124351;-83
2023/05/03 11:23:42;;;;;;;;;;;;;;;13.59;37.67;102346.33;107548;1262;60642;-83
2023/05/03 11:26:22;;;;;;;;;;;;;;;13.74;37.87;102338.58;107500;1259;77265;-84
2023/05/03 11:28:49;;;;;;;;;;;;;;;13.84;37.38;102341.79;107878;1259;65888;-84
2023/05/03 11:31:16;;;;;;;;;;;;;;;13.82;36.94;102342.75;107744;1263;72755;-84
2023/05/03 11:33:47;;;;;;;;;;;;;;;13.76;36.87;102348.56;107455;1259;124622;-84
2023/05/03 11:36:15;;;;;;;;;;;;;;;13.72;36.99;102340.84;107340;1264;63008;-83
2023/05/03 11:38:42;;;;;;;;;;;;;;;13.65;37.20;102349.39;107254;1259;124865;-84
2023/05/03 11:41:13;;;;;;;;;;;;;;;13.53;37.47;102347.86;107432;1259;65772;-84
2023/05/03 11:43:41;;;;;;;;;;;;;;;13.40;37.96;102349.67;107375;1260;71775;-84
2023/05/03 11:46:08;;;;;;;;;;;;;;;13.29;37.98;102344.62;106929;1259;124503;-84
2023/05/03 11:48:36;;;;;;;;;;;;;;;13.17;38.19;102341.68;106918;1259;60892;-84
2023/05/03 11:51:08;;;;;;;;;;;;;;;13.20;38.11;102341.77;106854;1263;124561;-84
2023/05/03 11:53:40;;;;;;;;;;;;;;;13.22;37.86;102347.16;106998;1259;67596;-84
2023/05/03 11:56:19;;;;;;;;;;;;;;;13.17;37.97;102344.66;107079;1259;72065;-83
2023/05/03 11:58:51;;;;;;;;;;;;;;;13.08;38.04;102343.05;107259;1259;62527;-84
2023/05/03 12:01:21;;;;;;;;;;;;;;;12.98;38.21;102345.48;107342;1265;62774;-84
2023/05/03 12:03:51;;;;;;;;;;;;;;;12.94;38.55;102347.08;107023;1259;124461;-84
2023/05/03 12:06:26;;;;;;;;;;;;;;;12.98;38.61;102354.81;107376;1261;68038;-85
2023/05/03 12:08:53;;;;;;;;;;;;;;;13.11;38.74;102344.92;107253;1259;124844;-86
2023/05/03 12:11:20;;;;;;;;;;;;;;;13.32;38.74;102348.98;107339;1259;60141;-83
2023/05/03 12:13:57;;;;;;;;;;;;;;;13.60;38.50;102352.35;107432;1259;63104;-84
2023/05/03 12:16:26;;;;;;;;;;;;;;;13.88;38.02;102355.89;107040;1258;285039;-85
2023/05/03 12:19:01;;;;;;;;;;;;;;;14.06;38.04;102360.42;107193;1260;67113;-88
2023/05/03 12:21:56;;;;;;;;;;;;;;;14.14;38.07;102360.52;107034;1259;125235;-84
2023/05/03 12:24:25;;;;;;;;;;;;;;;14.20;37.79;102368.89;107390;1258;62057;-84
2023/05/03 12:26:54;;;;;;;;;;;;;;;14.20;38.12;102371.52;107296;1259;60867;-84
2023/05/03 12:29:23;;;;;;;;;;;;;;;14.18;38.39;102376.23;107231;1259;75500;-84
2023/05/03 12:31:51;;;;;;;;;;;;;;;14.11;38.48;102379.83;107129;1259;65835;-83
2023/05/03 12:34:18;;;;;;;;;;;;;;;13.94;38.71;102377.80;107312;1258;124676;-83
2023/05/03 12:36:46;;;;;;;;;;;;;;;13.90;39.21;102372.02;107564;1258;61824;-84
2023/05/03 12:39:13;;;;;;;;;;;;;;;14.05;39.34;102374.88;107311;1259;124457;-84
2023/05/03 12:41:46;;;;;;;;;;;;;;;14.11;38.73;102371.00;107457;1258;76051;-84
2023/05/03 12:44:28;;;;;;;;;;;;;;;14.11;38.86;102376.11;107433;1259;67092;-84
2023/05/03 12:47:02;;;;;;;;;;;;;;;14.02;38.84;102380.23;107421;1260;73830;-84
2023/05/03 12:49:29;;;;;;;;;;;;;;;13.94;39.08;102373.56;106982;1257;62230;-84
2023/05/03 12:52:03;;;;;;;;;;;;;;;13.80;39.04;102380.46;107210;1259;124617;-85
2023/05/03 12:54:30;;;;;;;;;;;;;;;13.68;39.24;102374.20;107356;1257;75486;-84